BE680 / G-PRPE 7700 Squawk Report (20th of June, 2019)

Aircraft DH8D Reg No. G-PRPE Age N/A
Model DHC-8 Turboprop engines 2 First flight N/A
Registered 28-04-16 Rollout N/A Delivered 12-06-08
Construction No. 4209 Line No. N/A Series Q-402
ADSHEX 406F9A Airline name FlyBE Owner N/A
Airfield based Exeter~Devon~G First tracked 2017-07-13 07:34:00

Flight history for G-PRPE

Route Flight No Date Playback
Belfast City (BHD) - Manchester (MAN) BE475 2019-07-23 10:28:00
Manchester (MAN) - Belfast City (BHD) BE472 2019-07-23 09:44:00
Southampton (SOU) - Edinburgh (EDI) BE512 2019-07-23 07:44:00
Manchester (MAN) - Edinburgh (EDI) N/A 2019-07-23 05:52:00
Exeter (EXT) - Newcastle (NCL) BE707 2019-07-22 19:23:00
Belfast City (BHD) - Edinburgh (EDI) BE806 2019-07-22 17:26:00
Schiphol (AMS) - City (LCY) BE1376 2019-07-22 16:40:00
Exeter (EXT) - Schiphol (AMS) BE1533 2019-07-22 14:59:00
Schiphol (AMS) - Exeter (EXT) BE1532 2019-07-22 10:43:00
City (LCY) - Schiphol (AMS) BE1371 2019-07-22 08:43:00
Dusseldorf (DUS) - City (LCY) BE1400 2019-07-22 07:19:00
City (LCY) - Dusseldorf (DUS) BE1409 2019-07-22 05:16:00
Schiphol (AMS) - City (LCY) BE1378 2019-07-21 19:02:00
City (LCY) - Schiphol (AMS) BE1377 2019-07-21 17:16:00
Dusseldorf (DUS) - City (LCY) BE1404 2019-07-21 15:09:00
???? N/A 2019-07-21 13:14:00
Glasgow (GLA) - Birmingham (BHX) BE795 2019-07-20 21:25:00
Birmingham (BHX) - Glasgow (GLA) BE794 2019-07-20 20:24:00
Schiphol (AMS) - Birmingham (BHX) BE110 2019-07-20 18:05:00
Birmingham (BHX) - Schiphol (AMS) BE109 2019-07-20 17:06:00
Time Lat Lon Altitude Heading Speed Vertical Rate
2019-06-20 07:00:20 GMT 54.625793 -5.863287 225 215 120 -640
2019-06-20 07:00:17 GMT 54.627411 -5.861368 225 215 120 -640
2019-06-20 07:00:10 GMT 54.630775 -5.857377 300 215 122 -640
2019-06-20 06:59:58 GMT 54.636200 -5.850866 425 215 123 -832
2019-06-20 06:59:53 GMT 54.638596 -5.847973 500 216 122 -768
2019-06-20 06:59:49 GMT 54.640366 -5.845858 550 216 122 -320
2019-06-20 06:59:39 GMT 54.645035 -5.840203 625 215 122 -640
2019-06-20 06:59:32 GMT 54.648285 -5.836244 700 215 123 -576
2019-06-20 06:59:29 GMT 54.649612 -5.834629 725 215 124 -768
2019-06-20 06:59:25 GMT 54.651722 -5.832076 775 215 123 -832
2019-06-20 06:59:19 GMT 54.654373 -5.828893 850 216 124 -768
2019-06-20 06:59:13 GMT 54.657078 -5.825584 925 216 124 -768
2019-06-20 06:59:09 GMT 54.659363 -5.822835 1,000 214 123 -768
2019-06-20 06:59:06 GMT 54.660614 -5.821422 1,025 214 123 -512
2019-06-20 06:59:02 GMT 54.661789 -5.820088 1,050 214 123 -512
2019-06-20 06:58:58 GMT 54.664337 -5.817178 1,100 214 123 -832
2019-06-20 06:58:55 GMT 54.666046 -5.815241 1,125 214 122 -704
2019-06-20 06:58:47 GMT 54.669113 -5.811768 1,225 214 121 -640
2019-06-20 06:58:44 GMT 54.670807 -5.809829 1,250 214 121 -832
2019-06-20 06:58:40 GMT 54.672638 -5.807567 1,325 215 122 -576
2019-06-20 06:58:37 GMT 54.673786 -5.806274 1,325 214 123 -832
2019-06-20 06:58:31 GMT 54.676952 -5.802612 1,425 215 123 -576
2019-06-20 06:58:28 GMT 54.678314 -5.800943 1,450 215 123 -640
2019-06-20 06:58:21 GMT 54.681889 -5.796703 1,550 215 123 -704
2019-06-20 06:58:18 GMT 54.683258 -5.795046 1,575 216 123 -768
2019-06-20 06:58:12 GMT 54.685867 -5.791895 1,650 216 123 -704
2019-06-20 06:58:07 GMT 54.688217 -5.789046 1,700 216 123 -768
2019-06-20 06:58:00 GMT 54.691406 -5.785110 1,825 217 123 -512
2019-06-20 06:57:57 GMT 54.692688 -5.783494 1,825 217 124 -384
2019-06-20 06:57:51 GMT 54.695526 -5.779778 1,900 217 126 -832
2019-06-20 06:57:47 GMT 54.697449 -5.777274 1,925 217 126 -704
2019-06-20 06:57:40 GMT 54.700649 -5.773066 2,025 217 126 -640
2019-06-20 06:57:36 GMT 54.702347 -5.770892 2,025 217 126 -768
2019-06-20 06:57:30 GMT 54.705368 -5.766934 2,250 216 124 -768
2019-06-20 06:57:26 GMT 54.706970 -5.764914 2,175 216 124 -768
2019-06-20 06:57:17 GMT 54.711681 -5.759250 2,300 214 123 -704
2019-06-20 06:57:08 GMT 54.715591 -5.754838 2,400 213 124 -640
2019-06-20 06:57:05 GMT 54.716904 -5.753362 2,425 213 122 -512
2019-06-20 06:56:59 GMT 54.719879 -5.750212 2,475 212 121 -576
2019-06-20 06:56:56 GMT 54.721619 -5.748354 2,500 213 121 -512
2019-06-20 06:56:49 GMT 54.724823 -5.744638 2,575 216 122 -576
2019-06-20 06:56:45 GMT 54.726669 -5.742271 2,600 218 124 -640
2019-06-20 06:56:38 GMT 54.730118 -5.737443 2,675 221 128 -576
2019-06-20 06:56:34 GMT 54.731560 -5.735363 2,700 221 132 -704
2019-06-20 06:56:26 GMT 54.734940 -5.730259 2,800 222 133 -704
2019-06-20 06:56:22 GMT 54.737144 -5.726873 2,850 222 133 -832
2019-06-20 06:56:16 GMT 54.739799 -5.722878 2,950 222 133 -768
2019-06-20 06:56:11 GMT 54.742447 -5.718949 3,025 221 134 -768
2019-06-20 06:56:06 GMT 54.744736 -5.715556 3,075 221 135 -320
2019-06-20 06:56:02 GMT 54.746548 -5.712891 3,100 220 137 -256
2019-06-20 06:55:56 GMT 54.749863 -5.708205 3,125 220 140 192
2019-06-20 06:55:52 GMT 54.751740 -5.705539 3,125 220 145 320
2019-06-20 06:55:44 GMT 54.755486 -5.699990 3,125 223 150 -320
2019-06-20 06:55:37 GMT 54.759350 -5.693748 3,175 225 159 256
2019-06-20 06:55:34 GMT 54.760654 -5.691501 3,150 225 159 192
2019-06-20 06:55:31 GMT 54.762405 -5.688495 3,150 226 161 0
2019-06-20 06:55:26 GMT 54.765541 -5.682928 3,125 227 162 -128
2019-06-20 06:55:23 GMT 54.766335 -5.681513 3,125 229 161 -128
2019-06-20 06:55:20 GMT 54.768082 -5.678074 3,150 231 160 -64
2019-06-20 06:55:17 GMT 54.769451 -5.675021 3,150 233 159 -64
2019-06-20 06:55:13 GMT 54.771267 -5.670443 3,150 240 156 -128
2019-06-20 06:55:07 GMT 54.773026 -5.664502 3,150 248 156 -64
2019-06-20 06:55:00 GMT 54.774761 -5.656544 3,175 251 156 -64
2019-06-20 06:54:56 GMT 54.775692 -5.651550 3,175 253 158 -64
2019-06-20 06:54:50 GMT 54.777088 -5.643727 3,200 254 164 -192
2019-06-20 06:54:43 GMT 54.778439 -5.635404 3,225 255 171 -1152
2019-06-20 06:54:39 GMT 54.779324 -5.629661 3,275 255 172 -1152
2019-06-20 06:54:34 GMT 54.780304 -5.623304 3,400 256 174 -1088
2019-06-20 06:54:29 GMT 54.781464 -5.615761 3,500 255 176 -1024
2019-06-20 06:54:23 GMT 54.782684 -5.608197 3,600 256 175 -960
2019-06-20 06:54:18 GMT 54.783791 -5.600947 3,650 256 175 -960
2019-06-20 06:54:11 GMT 54.785110 -5.591879 3,775 256 175 -896
2019-06-20 06:54:08 GMT 54.786537 -5.580888 3,900 258 174 -1152
2019-06-20 06:54:03 GMT 54.786537 -5.580888 3,925 258 173 -1152
2019-06-20 06:53:59 GMT 54.787308 -5.574996 4,050 257 169 -768
2019-06-20 06:53:54 GMT 54.788166 -5.568653 4,050 257 169 -768
2019-06-20 06:53:49 GMT 54.789192 -5.561329 4,125 257 166 -64
2019-06-20 06:53:43 GMT 54.790192 -5.554639 4,125 257 165 0
2019-06-20 06:53:38 GMT 54.791153 -5.547773 4,125 257 165 -64
2019-06-20 06:53:33 GMT 54.791977 -5.541876 4,125 256 164 -64
2019-06-20 06:53:25 GMT 54.793522 -5.531450 4,150 256 164 -64
2019-06-20 06:53:18 GMT 54.794998 -5.521357 4,150 257 162 -128
2019-06-20 06:53:12 GMT 54.795731 -5.515541 4,150 260 160 64
2019-06-20 06:53:05 GMT 54.796360 -5.505399 4,150 283 159 0
2019-06-20 06:53:02 GMT 54.796234 -5.502939 4,150 286 160 0
2019-06-20 06:52:56 GMT 54.794449 -5.495264 4,150 305 161 0
2019-06-20 06:52:52 GMT 54.792404 -5.491167 4,150 316 164 64
2019-06-20 06:52:46 GMT 54.788773 -5.487429 4,150 341 172 64
2019-06-20 06:52:41 GMT 54.783875 -5.485732 4,150 8 184 -64
2019-06-20 06:52:34 GMT 54.778065 -5.487255 4,150 20 188 0
2019-06-20 06:52:31 GMT 54.775784 -5.488919 4,150 28 192 128
2019-06-20 06:52:25 GMT 54.771641 -5.493913 4,125 42 198 0
2019-06-20 06:52:21 GMT 54.769081 -5.498740 4,150 56 203 -64
2019-06-20 06:52:16 GMT 54.766434 -5.505928 4,150 61 205 -64
2019-06-20 06:52:10 GMT 54.764145 -5.513639 4,150 63 207 0
2019-06-20 06:52:05 GMT 54.761948 -5.521438 4,150 65 208 -64
2019-06-20 06:52:00 GMT 54.759888 -5.529597 4,150 67 210 -192
2019-06-20 06:51:53 GMT 54.757164 -5.541437 4,175 69 212 -192
2019-06-20 06:51:42 GMT 54.753983 -5.557870 4,225 73 214 -384
2019-06-20 06:51:39 GMT 54.753250 -5.562245 4,250 74 214 -448
2019-06-20 06:51:33 GMT 54.751389 -5.576477 4,300 80 214 -448
2019-06-20 06:51:29 GMT 54.751110 -5.579057 4,325 81 215 -448
2019-06-20 06:51:20 GMT 54.750366 -5.595676 4,400 90 215 -384
2019-06-20 06:51:14 GMT 54.750732 -5.605128 4,425 95 215 -512
2019-06-20 06:51:11 GMT 54.751236 -5.610378 4,475 102 215 -512
2019-06-20 06:51:08 GMT 54.751968 -5.615225 4,475 108 215 -448
2019-06-20 06:51:02 GMT 54.754486 -5.625727 4,525 121 214 -448
2019-06-20 06:50:57 GMT 54.759750 -5.636552 4,600 141 211 -576
2019-06-20 06:50:48 GMT 54.764740 -5.641722 4,650 160 206 -512
2019-06-20 06:50:37 GMT 54.774490 -5.644145 4,750 189 198 -512
2019-06-20 06:50:28 GMT 54.782227 -5.639218 4,825 222 192 -576
2019-06-20 06:50:20 GMT 54.787079 -5.630736 4,875 235 190 -768
2019-06-20 06:50:16 GMT 54.788631 -5.626082 4,900 247 192 -960
2019-06-20 06:50:08 GMT 54.791241 -5.613348 5,025 255 193 -512
2019-06-20 06:50:05 GMT 54.791840 -5.609813 5,050 254 192 -512
2019-06-20 06:50:01 GMT 54.792664 -5.604805 5,100 254 192 -448
2019-06-20 06:49:55 GMT 54.794449 -5.595030 5,125 252 190 0
2019-06-20 06:49:51 GMT 54.795639 -5.588810 5,125 253 189 -64
2019-06-20 06:49:45 GMT 54.797150 -5.580732 5,125 253 189 0
2019-06-20 06:49:34 GMT 54.799946 -5.566157 5,150 251 186 64
2019-06-20 06:49:28 GMT 54.801853 -5.556835 5,150 251 182 64
2019-06-20 06:49:25 GMT 54.802917 -5.551569 5,150 251 182 0
2019-06-20 06:49:20 GMT 54.804089 -5.545848 5,150 251 182 0
2019-06-20 06:49:17 GMT 54.804977 -5.541552 5,150 252 181 0
2019-06-20 06:49:14 GMT 54.805996 -5.536527 5,150 252 181 -64
2019-06-20 06:49:10 GMT 54.806946 -5.531778 5,150 252 181 0
2019-06-20 06:49:07 GMT 54.807720 -5.527704 5,150 261 184 0
2019-06-20 06:49:04 GMT 54.808502 -5.523296 5,150 255 182 -64
2019-06-20 06:49:01 GMT 54.809208 -5.519132 5,150 255 182 -64
2019-06-20 06:48:57 GMT 54.810093 -5.513555 5,150 257 182 -64
2019-06-20 06:48:53 GMT 54.810978 -5.507147 5,150 258 184 -64
2019-06-20 06:48:48 GMT 54.811569 -5.501969 5,150 261 184 0
2019-06-20 06:48:45 GMT 54.812119 -5.495588 5,150 263 184 0
2019-06-20 06:48:42 GMT 54.812302 -5.492033 5,125 267 184 -128
2019-06-20 06:48:39 GMT 54.812439 -5.487509 5,150 271 184 0
2019-06-20 06:48:33 GMT 54.812187 -5.478599 5,150 279 185 192
2019-06-20 06:48:26 GMT 54.810837 -5.469111 5,150 300 187 64
2019-06-20 06:48:23 GMT 54.809582 -5.464367 5,125 306 188 0
2019-06-20 06:48:18 GMT 54.806946 -5.458428 5,125 318 191 0
2019-06-20 06:48:15 GMT 54.805664 -5.456408 5,125 64 221 0
2019-06-20 06:48:12 GMT 54.802692 -5.453047 5,125 333 195 64
2019-06-20 06:48:08 GMT 54.799664 -5.450967 5,125 1 204 64
2019-06-20 06:48:05 GMT 54.796463 -5.449784 5,125 359 203 0
2019-06-20 06:48:02 GMT 54.793427 -5.449635 5,125 4 204 64
2019-06-20 06:47:59 GMT 54.791519 -5.450051 5,125 10 206 64
2019-06-20 06:47:55 GMT 54.787491 -5.451965 5,125 24 211 0
2019-06-20 06:47:49 GMT 54.782684 -5.456570 5,125 38 215 64
2019-06-20 06:47:44 GMT 54.778519 -5.463598 5,125 50 219 -192
2019-06-20 06:47:39 GMT 54.775955 -5.470303 5,125 59 221 -128
2019-06-20 06:47:34 GMT 54.773849 -5.477412 5,125 64 222 0
2019-06-20 06:47:28 GMT 54.770943 -5.488254 5,125 65 222 0
2019-06-20 06:47:23 GMT 54.768753 -5.496576 5,125 65 223 0
2019-06-20 06:47:18 GMT 54.766987 -5.503235 5,125 65 223 64
2019-06-20 06:47:13 GMT 54.762589 -5.520549 5,125 66 224 -64
2019-06-20 06:47:08 GMT 54.762589 -5.520549 5,125 67 225 -64
2019-06-20 06:47:02 GMT 54.760189 -5.530867 5,125 69 226 -64
2019-06-20 06:46:58 GMT 54.757347 -5.544267 5,125 70 226 -128
2019-06-20 06:46:54 GMT 54.757347 -5.544267 5,125 71 226 0
2019-06-20 06:46:51 GMT 54.755905 -5.552008 5,125 74 225 -64
2019-06-20 06:46:46 GMT 54.754833 -5.558250 5,125 74 225 -64
2019-06-20 06:46:43 GMT 54.753937 -5.564252 5,150 77 224 64
2019-06-20 06:46:40 GMT 54.752792 -5.573704 5,150 79 223 -64
2019-06-20 06:46:37 GMT 54.752792 -5.573704 5,150 80 222 -64
2019-06-20 06:46:33 GMT 54.752243 -5.580570 5,150 85 221 -64
2019-06-20 06:46:30 GMT 54.751923 -5.587113 5,150 97 219 -64
2019-06-20 06:46:26 GMT 54.751877 -5.592768 5,150 91 221 0
2019-06-20 06:46:22 GMT 54.752182 -5.601280 5,150 97 219 -64
2019-06-20 06:46:15 GMT 54.753937 -5.614256 5,150 116 216 0
2019-06-20 06:46:11 GMT 54.755161 -5.619091 5,150 118 216 0
2019-06-20 06:46:07 GMT 54.757347 -5.625250 5,150 128 214 64
2019-06-20 06:46:04 GMT 54.759071 -5.628745 5,150 139 211 0
2019-06-20 06:46:01 GMT 54.761993 -5.633078 5,150 147 209 64
2019-06-20 06:45:55 GMT 54.765961 -5.636735 5,125 186 198 64
2019-06-20 06:45:52 GMT 54.768768 -5.638329 5,150 170 203 64
2019-06-20 06:45:49 GMT 54.771835 -5.639056 5,150 179 201 64
2019-06-20 06:45:46 GMT 54.775543 -5.638733 5,125 266 185 0
2019-06-20 06:45:42 GMT 54.777878 -5.637734 5,125 198 196 0
2019-06-20 06:45:39 GMT 54.780441 -5.635986 5,125 219 192 64
2019-06-20 06:45:35 GMT 54.783325 -5.632836 5,125 222 191 64
2019-06-20 06:45:31 GMT 54.786209 -5.627989 5,125 233 189 -64
2019-06-20 06:45:26 GMT 54.788307 -5.622337 5,125 244 187 -128
2019-06-20 06:45:23 GMT 54.789322 -5.618457 5,125 250 187 -128
2019-06-20 06:45:20 GMT 54.790260 -5.613764 5,125 253 186 0
2019-06-20 06:45:17 GMT 54.791798 -5.604858 5,125 255 185 64
2019-06-20 06:45:10 GMT 54.792572 -5.599796 5,125 256 186 64
2019-06-20 06:45:06 GMT 54.794312 -5.587598 5,125 258 186 0
2019-06-20 06:45:02 GMT 54.794312 -5.587598 5,125 260 186 0
2019-06-20 06:44:59 GMT 54.794815 -5.583640 5,125 259 186 -64
2019-06-20 06:44:54 GMT 54.795776 -5.574754 5,125 262 186 0
2019-06-20 06:44:50 GMT 54.796143 -5.570472 5,125 263 186 64
2019-06-20 06:44:46 GMT 54.796638 -5.563743 5,125 265 185 -64
2019-06-20 06:44:43 GMT 54.796871 -5.559415 5,125 266 185 -64
2019-06-20 06:44:38 GMT 54.797104 -5.552539 5,125 268 185 64
2019-06-20 06:44:34 GMT 54.797199 -5.545932 5,125 271 185 0
2019-06-20 06:44:31 GMT 54.797058 -5.537775 5,125 273 185 0
2019-06-20 06:44:24 GMT 54.796371 -5.525961 5,125 277 185 0
2019-06-20 06:44:21 GMT 54.796371 -5.525961 5,125 279 185 -64
2019-06-20 06:44:18 GMT 54.796036 -5.521878 5,125 280 186 -64
2019-06-20 06:44:12 GMT 54.795319 -5.514894 5,125 281 187 0
2019-06-20 06:44:09 GMT 54.794590 -5.507979 5,125 281 188 -64
2019-06-20 06:44:02 GMT 54.793716 -5.499788 5,150 280 188 0
2019-06-20 06:43:57 GMT 54.793076 -5.491145 5,150 275 188 -64
2019-06-20 06:43:52 GMT 54.792915 -5.484841 5,150 250 189 -64
2019-06-20 06:43:47 GMT 54.793285 -5.477350 5,150 261 188 64
2019-06-20 06:43:44 GMT 54.794033 -5.472690 5,150 247 190 0
2019-06-20 06:43:41 GMT 54.795429 -5.467446 5,150 236 190 -64
2019-06-20 06:43:37 GMT 54.796921 -5.463759 5,150 231 191 0
2019-06-20 06:43:34 GMT 54.798782 -5.460205 5,150 220 193 64
2019-06-20 06:43:31 GMT 54.800922 -5.457126 5,150 212 194 64
2019-06-20 06:43:26 GMT 54.810139 -5.451133 5,150 177 202 128
2019-06-20 06:43:18 GMT 54.812840 -5.450883 5,150 160 206 64
2019-06-20 06:43:07 GMT 54.822235 -5.455035 5,150 150 208 0
2019-06-20 06:43:01 GMT 54.826851 -5.460455 5,150 133 212 128
2019-06-20 06:42:57 GMT 54.832443 -5.473211 5,150 130 212 128
2019-06-20 06:42:48 GMT 54.833790 -5.479015 5,125 102 214 64
2019-06-20 06:42:37 GMT 54.834732 -5.499465 5,125 81 213 -128
2019-06-20 06:42:29 GMT 54.833275 -5.510226 5,125 74 213 0
2019-06-20 06:42:25 GMT 54.832077 -5.517479 5,125 74 214 0
2019-06-20 06:42:21 GMT 54.830704 -5.526689 5,125 76 216 -64
2019-06-20 06:42:17 GMT 54.829926 -5.532182 5,125 76 216 -256
2019-06-20 06:42:14 GMT 54.829411 -5.535861 5,125 76 217 -256
2019-06-20 06:42:10 GMT 54.828461 -5.542845 5,150 75 218 -64
2019-06-20 06:42:07 GMT 54.827595 -5.548512 5,150 73 218 -64
2019-06-20 06:42:04 GMT 54.826538 -5.554639 5,150 72 218 0
2019-06-20 06:41:59 GMT 54.825211 -5.561425 5,175 69 217 -64
2019-06-20 06:41:56 GMT 54.824059 -5.566323 5,175 65 215 -64
2019-06-20 06:41:53 GMT 54.822693 -5.571603 5,175 63 214 64
2019-06-20 06:41:45 GMT 54.819077 -5.582913 5,150 56 211 0
2019-06-20 06:41:42 GMT 54.817028 -5.587963 5,175 51 208 128
2019-06-20 06:41:38 GMT 54.815186 -5.591718 5,150 46 207 128
2019-06-20 06:41:33 GMT 54.811302 -5.597950 5,150 32 204 192
2019-06-20 06:41:30 GMT 54.809372 -5.600200 5,150 30 204 128
2019-06-20 06:41:26 GMT 54.805618 -5.603512 5,125 21 202 -64
2019-06-20 06:41:23 GMT 54.802826 -5.604966 5,125 11 201 -64
2019-06-20 06:41:20 GMT 54.799805 -5.605857 5,125 4 199 -128
2019-06-20 06:41:17 GMT 54.797516 -5.606178 5,125 2 200 -64
2019-06-20 06:41:14 GMT 54.794678 -5.606420 5,125 1 201 -64
2019-06-20 06:41:11 GMT 54.791885 -5.606501 5,125 2 202 -64
2019-06-20 06:41:07 GMT 54.788261 -5.606773 5,125 2 202 -64
2019-06-20 06:41:03 GMT 54.784164 -5.607189 5,125 3 203 64
2019-06-20 06:41:00 GMT 54.781860 -5.607390 5,125 3 204 -64
2019-06-20 06:40:56 GMT 54.777878 -5.607874 5,125 3 204 128
2019-06-20 06:40:53 GMT 54.775505 -5.608104 5,125 3 204 64
2019-06-20 06:40:49 GMT 54.770920 -5.608601 5,125 3 203 0
2019-06-20 06:40:46 GMT 54.768616 -5.608853 5,125 3 202 0
2019-06-20 06:40:43 GMT 54.765636 -5.609103 5,150 2 200 64
2019-06-20 06:40:39 GMT 54.762238 -5.609353 5,150 2 198 0
2019-06-20 06:40:35 GMT 54.758194 -5.609571 5,150 1 196 64
2019-06-20 06:40:31 GMT 54.755035 -5.609651 5,150 0 194 64
2019-06-20 06:40:28 GMT 54.751831 -5.609651 5,150 0 191 -192
2019-06-20 06:40:25 GMT 54.749268 -5.609571 5,150 359 188 0
2019-06-20 06:40:22 GMT 54.747063 -5.609519 5,150 359 187 64
2019-06-20 06:40:19 GMT 54.744499 -5.609270 5,150 358 183 0
2019-06-20 06:40:16 GMT 54.741531 -5.609005 5,150 357 180 -64
2019-06-20 06:40:13 GMT 54.739609 -5.608844 5,150 357 179 -64
2019-06-20 06:40:10 GMT 54.736725 -5.608440 5,150 356 179 0
2019-06-20 06:40:07 GMT 54.733841 -5.608117 5,150 357 179 128
2019-06-20 06:40:03 GMT 54.731232 -5.607855 5,125 358 179 64
2019-06-20 06:40:00 GMT 54.728302 -5.607632 5,125 0 182 -64
2019-06-20 06:39:54 GMT 54.723179 -5.607522 5,150 0 184 0
2019-06-20 06:39:51 GMT 54.721085 -5.607522 5,150 0 184 0
2019-06-20 06:39:45 GMT 54.715942 -5.607470 5,150 0 183 64
2019-06-20 06:39:41 GMT 54.712372 -5.607470 5,125 0 183 -128
2019-06-20 06:39:36 GMT 54.708328 -5.607439 5,150 0 183 0
2019-06-20 06:39:33 GMT 54.704910 -5.607470 5,125 0 183 -64
2019-06-20 06:39:30 GMT 54.701019 -5.607439 5,150 0 183 64
2019-06-20 06:39:27 GMT 54.701019 -5.607439 5,150 0 183 64
2019-06-20 06:39:24 GMT 54.697807 -5.607522 5,125 0 183 -64
2019-06-20 06:39:20 GMT 54.694794 -5.607470 5,150 0 184 0
2019-06-20 06:39:17 GMT 54.692596 -5.607551 5,150 0 184 0
2019-06-20 06:39:14 GMT 54.689072 -5.607551 5,150 0 184 0
2019-06-20 06:39:10 GMT 54.684589 -5.607605 5,150 0 185 64
2019-06-20 06:39:06 GMT 54.683331 -5.607605 5,125 0 186 0
2019-06-20 06:39:03 GMT 54.679733 -5.607713 5,125 0 187 0
2019-06-20 06:39:00 GMT 54.677353 -5.607713 5,125 0 187 0
2019-06-20 06:38:56 GMT 54.673973 -5.607771 5,125 0 188 64
2019-06-20 06:38:53 GMT 54.671356 -5.607793 5,125 0 189 -64
2019-06-20 06:38:50 GMT 54.668198 -5.607793 5,125 0 189 0
2019-06-20 06:38:47 GMT 54.666851 -5.607855 5,125 0 189 64
2019-06-20 06:38:44 GMT 54.663574 -5.607793 5,125 0 190 64
2019-06-20 06:38:41 GMT 54.661194 -5.607793 5,125 0 190 0
2019-06-20 06:38:38 GMT 54.654877 -5.607713 5,125 0 190 -64
2019-06-20 06:38:34 GMT 54.654877 -5.607713 5,125 0 190 -64
2019-06-20 06:38:31 GMT 54.652096 -5.607688 5,125 359 190 -64
2019-06-20 06:38:27 GMT 54.648697 -5.607522 5,150 358 189 64
2019-06-20 06:38:24 GMT 54.646042 -5.607272 5,150 358 189 64
2019-06-20 06:38:21 GMT 54.643017 -5.607022 5,125 357 189 -64
2019-06-20 06:38:17 GMT 54.639061 -5.606523 5,125 356 188 0
2019-06-20 06:38:14 GMT 54.636841 -5.606259 5,125 355 187 0
2019-06-20 06:38:09 GMT 54.632587 -5.605524 5,125 354 187 0
2019-06-20 06:38:06 GMT 54.629654 -5.604885 5,125 353 186 -64
2019-06-20 06:38:03 GMT 54.627888 -5.604442 5,125 352 185 -64
2019-06-20 06:37:58 GMT 54.623703 -5.603270 5,150 350 184 0
2019-06-20 06:37:53 GMT 54.619324 -5.601696 5,150 348 183 0
2019-06-20 06:37:50 GMT 54.617413 -5.600947 5,150 347 183 0
2019-06-20 06:37:47 GMT 54.614914 -5.599877 5,150 345 182 0
2019-06-20 06:37:43 GMT 54.611176 -5.597950 5,150 341 182 128
2019-06-20 06:37:40 GMT 54.609146 -5.596726 5,125 340 182 64
2019-06-20 06:37:37 GMT 54.606754 -5.595204 5,125 339 182 64
2019-06-20 06:37:33 GMT 54.603447 -5.592873 5,125 335 183 0
2019-06-20 06:37:30 GMT 54.601074 -5.590876 5,125 333 185 -128
2019-06-20 06:37:27 GMT 54.598747 -5.588712 5,125 330 187 -128
2019-06-20 06:37:23 GMT 54.595367 -5.585094 5,150 327 187 -64
2019-06-20 06:37:20 GMT 54.593445 -5.582832 5,150 324 186 0
2019-06-20 06:37:17 GMT 54.591385 -5.580166 5,150 321 185 0
2019-06-20 06:37:14 GMT 54.589809 -5.577975 5,150 321 184 64
2019-06-20 06:37:10 GMT 54.586945 -5.573704 5,150 318 182 64
2019-06-20 06:37:05 GMT 54.584015 -5.569099 5,150 317 181 64
2019-06-20 06:37:02 GMT 54.582359 -5.566323 5,150 317 180 -64
2019-06-20 06:36:59 GMT 54.580261 -5.562960 5,150 317 179 64
2019-06-20 06:36:55 GMT 54.578018 -5.559324 5,150 318 178 64
2019-06-20 06:36:52 GMT 54.575912 -5.556093 5,150 319 177 64
2019-06-20 06:36:49 GMT 54.573853 -5.553104 5,125 321 178 64
2019-06-20 06:36:44 GMT 54.571335 -5.549550 5,125 323 177 -128
2019-06-20 06:36:41 GMT 54.569324 -5.547014 5,150 326 176 -64
2019-06-20 06:36:38 GMT 54.566803 -5.544218 5,150 329 176 64
2019-06-20 06:36:35 GMT 54.564857 -5.542353 5,150 334 177 128
2019-06-20 06:36:32 GMT 54.562111 -5.540355 5,125 343 178 64
2019-06-20 06:36:29 GMT 54.560528 -5.539606 5,125 348 180 64
2019-06-20 06:36:24 GMT 54.555222 -5.538887 5,125 5 185 -64
2019-06-20 06:36:20 GMT 54.549820 -5.541068 5,125 16 188 0
2019-06-20 06:36:17 GMT 54.549820 -5.541068 5,125 23 189 -192
2019-06-20 06:36:14 GMT 54.548191 -5.542353 5,125 27 190 -128
2019-06-20 06:36:11 GMT 54.545059 -5.545349 5,125 32 191 64
2019-06-20 06:36:07 GMT 54.542084 -5.548661 5,125 32 191 0
2019-06-20 06:36:04 GMT 54.540253 -5.550681 5,125 32 191 0
2019-06-20 06:36:00 GMT 54.537296 -5.553922 5,125 32 191 0
2019-06-20 06:35:57 GMT 54.534668 -5.556739 5,125 31 193 64
2019-06-20 06:35:54 GMT 54.533154 -5.558416 5,125 31 193 0
2019-06-20 06:35:50 GMT 54.529358 -5.562394 5,125 31 195 -64
2019-06-20 06:35:47 GMT 54.527382 -5.564409 5,125 31 196 -64
2019-06-20 06:35:43 GMT 54.524506 -5.567322 5,125 30 196 -128
2019-06-20 06:35:40 GMT 54.521759 -5.570149 5,150 30 196 -64
2019-06-20 06:35:37 GMT 54.519424 -5.572492 5,150 30 196 -64
2019-06-20 06:35:33 GMT 54.516209 -5.575645 5,150 54 236 64
2019-06-20 06:35:29 GMT 54.513416 -5.578475 5,150 30 197 192
2019-06-20 06:35:26 GMT 54.511089 -5.580722 5,125 29 198 64
2019-06-20 06:35:23 GMT 54.508854 -5.582969 5,125 29 203 -128
2019-06-20 06:35:19 GMT 54.504944 -5.586798 5,125 29 211 -128
2019-06-20 06:35:16 GMT 54.502754 -5.588962 5,125 29 213 -128
2019-06-20 06:35:13 GMT 54.499729 -5.591958 5,125 30 216 -192
2019-06-20 06:35:10 GMT 54.497028 -5.594704 5,125 30 223 -256
2019-06-20 06:35:07 GMT 54.493607 -5.598180 5,125 31 225 -256
2019-06-20 06:35:03 GMT 54.490978 -5.600947 5,125 31 231 -192
2019-06-20 06:34:59 GMT 54.486649 -5.605532 5,125 32 233 -192
2019-06-20 06:34:56 GMT 54.484451 -5.607955 5,150 32 234 -128
2019-06-20 06:34:53 GMT 54.481796 -5.610863 5,150 32 235 -128
2019-06-20 06:34:49 GMT 54.478081 -5.614929 5,150 33 236 128
2019-06-20 06:34:46 GMT 54.474918 -5.618591 5,150 35 236 128
2019-06-20 06:34:42 GMT 54.472031 -5.622337 5,150 38 236 64
2019-06-20 06:34:38 GMT 54.468025 -5.628412 5,150 47 237 128
2019-06-20 06:34:35 GMT 54.466583 -5.631242 5,150 49 237 64
2019-06-20 06:34:32 GMT 54.464397 -5.635986 5,150 54 236 64
2019-06-20 06:34:29 GMT 54.462616 -5.640833 5,150 61 237 64
2019-06-20 06:34:25 GMT 54.460346 -5.649053 5,150 68 237 128
2019-06-20 06:34:22 GMT 54.459549 -5.652708 5,125 73 237 128
2019-06-20 06:34:19 GMT 54.458672 -5.658209 5,125 78 237 320
2019-06-20 06:34:15 GMT 54.457672 -5.671773 5,100 85 238 192
2019-06-20 06:34:12 GMT 54.457672 -5.671773 5,100 89 239 64
2019-06-20 06:34:08 GMT 54.457809 -5.679043 5,100 94 240 -64
2019-06-20 06:34:04 GMT 54.458359 -5.686879 5,075 100 246 -128
2019-06-20 06:34:01 GMT 54.458954 -5.691645 5,075 103 248 0
2019-06-20 06:33:58 GMT 54.459881 -5.697493 5,075 108 252 -64
2019-06-20 06:33:54 GMT 54.461414 -5.705067 5,100 110 253 0
2019-06-20 06:33:51 GMT 54.462814 -5.710643 5,100 114 255 64
2019-06-20 06:33:48 GMT 54.464676 -5.716969 5,100 119 256 320
2019-06-20 06:33:45 GMT 54.466370 -5.721938 5,075 123 256 128
2019-06-20 06:33:41 GMT 54.469097 -5.728704 5,050 128 252 64
2019-06-20 06:33:37 GMT 54.471405 -5.733652 5,050 129 252 128
2019-06-20 06:33:33 GMT 54.475021 -5.740841 5,050 130 246 1024
2019-06-20 06:33:30 GMT 54.476898 -5.744638 5,000 130 243 1472
2019-06-20 06:33:26 GMT 54.479572 -5.750011 4,925 130 240 1920
2019-06-20 06:33:23 GMT 54.481750 -5.754412 4,825 130 237 1984
2019-06-20 06:33:20 GMT 54.484276 -5.759499 4,725 130 236 2048
2019-06-20 06:33:17 GMT 54.486328 -5.763460 4,625 130 235 2048
2019-06-20 06:33:13 GMT 54.489906 -5.770569 4,450 131 233 1984
2019-06-20 06:33:09 GMT 54.491676 -5.774064 4,375 130 231 1792
2019-06-20 06:33:05 GMT 54.497040 -5.784786 4,150 130 227 1728
2019-06-20 06:33:02 GMT 54.500381 -5.791491 4,125 130 225 1728
2019-06-20 06:32:57 GMT 54.500381 -5.791491 4,000 129 222 1792
2019-06-20 06:32:52 GMT 54.503677 -5.798439 3,875 128 218 1600
2019-06-20 06:32:47 GMT 54.506664 -5.805026 3,750 127 214 1728
2019-06-20 06:32:44 GMT 54.508713 -5.809667 3,600 126 210 1856
2019-06-20 06:32:41 GMT 54.509903 -5.812333 3,600 126 210 1856
2019-06-20 06:32:37 GMT 54.512512 -5.818553 3,450 125 207 2240
2019-06-20 06:32:33 GMT 54.515076 -5.824612 3,275 126 204 1344
2019-06-20 06:32:26 GMT 54.518490 -5.832409 3,150 127 200 -64
2019-06-20 06:32:23 GMT 54.520260 -5.836487 3,150 127 195 64
2019-06-20 06:32:20 GMT 54.521980 -5.840315 3,150 127 195 64
2019-06-20 06:32:16 GMT 54.524323 -5.845696 3,150 127 192 64
2019-06-20 06:32:13 GMT 54.525936 -5.849221 3,150 127 192 64
2019-06-20 06:32:10 GMT 54.527939 -5.853774 3,150 127 192 64
2019-06-20 06:32:06 GMT 54.529663 -5.857627 3,125 127 193 64
2019-06-20 06:32:02 GMT 54.532379 -5.863710 3,100 129 196 192
2019-06-20 06:31:59 GMT 54.533478 -5.866117 3,150 127 198 64
2019-06-20 06:31:56 GMT 54.535217 -5.869850 3,150 127 198 64
2019-06-20 06:31:51 GMT 54.537964 -5.875989 3,125 128 198 64
2019-06-20 06:31:48 GMT 54.539429 -5.879220 3,125 128 197 64
2019-06-20 06:31:45 GMT 54.541168 -5.882856 3,125 128 197 64
2019-06-20 06:31:41 GMT 54.543999 -5.888922 3,100 130 196 192
2019-06-20 06:31:34 GMT 54.547771 -5.896495 3,100 131 196 192
2019-06-20 06:31:31 GMT 54.549728 -5.900143 3,100 133 198 128
2019-06-20 06:31:28 GMT 54.552193 -5.904319 3,100 136 200 192
2019-06-20 06:31:25 GMT 54.553619 -5.906686 3,100 138 201 128
2019-06-20 06:31:20 GMT 54.557831 -5.912179 3,075 147 198 192
2019-06-20 06:31:15 GMT 54.561459 -5.915638 3,075 157 192 448
2019-06-20 06:31:11 GMT 54.565155 -5.917915 3,025 165 186 1088
2019-06-20 06:31:07 GMT 54.567928 -5.918968 2,975 173 180 1472
2019-06-20 06:31:04 GMT 54.570511 -5.919369 2,875 177 178 1856
2019-06-20 06:31:00 GMT 54.573441 -5.919127 2,775 187 175 2176
2019-06-20 06:30:57 GMT 54.576691 -5.918157 2,625 196 173 1856
2019-06-20 06:30:49 GMT 54.581360 -5.914845 2,450 211 165 1536
2019-06-20 06:30:46 GMT 54.583897 -5.912143 2,350 214 161 2112
2019-06-20 06:30:40 GMT 54.587677 -5.907736 2,100 214 160 2944
2019-06-20 06:30:37 GMT 54.589096 -5.906121 2,000 214 161 2880
2019-06-20 06:30:34 GMT 54.591251 -5.903653 1,925 215 161 2496
2019-06-20 06:30:29 GMT 54.594135 -5.900241 1,675 215 161 1408
2019-06-20 06:30:26 GMT 54.596512 -5.897477 1,575 214 154 1408
2019-06-20 06:30:23 GMT 54.597885 -5.895942 1,525 214 150 1536
2019-06-20 06:30:18 GMT 54.601074 -5.892251 1,375 214 144 1472
2019-06-20 06:30:14 GMT 54.603355 -5.889671 1,250 214 137 3072

Making use of Plane Finder data

You are free to use the raw flight data, aircraft information and images provided in this report for your own purposes provided the data is correctly attributed to Plane Finder. We ask that you please credit Plane Finder and link to planefinder.net in close proximity to the content.

Optionally one of the following logos (no smaller then 150x24px) can be used and must link to planefinder.net

Embedding the Plane Finder map

You are welcome to embed the Plane Finder playback map on your website to offer visitors a more interactive experience. We suggest using the following HTML code:

<iframe src="//planefinder.net/data/report/BE680-G-PRPE-7700-squawk-2019-06-20/map" width="800" height="600" seamless="seamless"></iframe>

Where our data comes from

Plane Finder has a global network of data feeds and antenna radars that receive data broadcast directly from aircraft. The primary technologies used are ADS-B and MLAT. We also show feeds from the FAA and a FLARM glider feed.

Click here to find out more about the Plane Finder network.

How we collect our data